Time;durP1;ratioP1;P1;durP2;ratioP2;P2;SDS_P1;SDS_P2;PMS_P1;PMS_P2;Temp;Humidity;BMP_temperature;BMP_pressure;BME280_temperature;BME280_humidity;BME280_pressure;Samples;Min_cycle;Max_cycle;Signal;HPM_P1;HPM_P2
2024/02/08 00:00:40;;;;;;;9.38;5.85;;;-0.80;99.90;;;;;;4906364;29;20047;-76
2024/02/08 00:03:10;;;;;;;8.23;4.68;;;-0.70;99.90;;;;;;4908596;29;20050;-76
2024/02/08 00:05:38;;;;;;;8.73;6.25;;;-0.80;99.90;;;;;;4927291;29;20536;-76
2024/02/08 00:08:06;;;;;;;8.35;6.18;;;-0.60;99.90;;;;;;4938900;29;20122;-76
2024/02/08 00:10:33;;;;;;;7.47;5.50;;;-0.80;99.90;;;;;;4877774;29;20051;-76
2024/02/08 00:13:00;;;;;;;11.27;5.38;;;-0.60;99.90;;;;;;4920406;29;20047;-76
2024/02/08 00:15:29;;;;;;;8.60;6.38;;;-0.50;99.90;;;;;;4911231;28;20553;-76
2024/02/08 00:17:56;;;;;;;10.23;9.20;;;-0.80;99.90;;;;;;4933322;29;20046;-76
2024/02/08 00:20:24;;;;;;;9.10;6.50;;;-0.70;99.90;;;;;;4908211;29;20051;-76
2024/02/08 00:22:54;;;;;;;8.88;5.97;;;-0.80;99.90;;;;;;4921922;29;20040;-75
2024/02/08 00:25:24;;;;;;;11.65;5.63;;;-0.60;99.90;;;;;;4900182;29;20122;-76
2024/02/08 00:27:54;;;;;;;10.98;6.45;;;-0.80;99.90;;;;;;4905421;29;20040;-77
2024/02/08 00:30:22;;;;;;;11.52;6.28;;;-0.80;99.90;;;;;;4939903;28;20035;-76
2024/02/08 00:32:49;;;;;;;9.95;5.95;;;-0.80;99.90;;;;;;4921625;29;20047;-77
2024/02/08 00:35:17;;;;;;;11.23;5.95;;;-0.70;99.90;;;;;;4879623;29;20157;-76
2024/02/08 00:37:49;;;;;;;10.40;7.20;;;-0.80;99.90;;;;;;4930396;29;20138;-77
2024/02/08 00:40:17;;;;;;;8.07;5.65;;;-0.80;99.90;;;;;;4924650;29;20048;-76
2024/02/08 00:42:48;;;;;;;8.98;5.75;;;-0.60;99.90;;;;;;4900929;29;20036;-77
2024/02/08 00:45:18;;;;;;;12.82;5.22;;;-0.90;99.90;;;;;;4915082;29;20043;-77
2024/02/08 00:47:45;;;;;;;11.68;5.20;;;-0.90;99.90;;;;;;4915840;29;20044;-76
2024/02/08 00:50:13;;;;;;;9.52;5.53;;;-0.90;99.90;;;;;;4910064;29;20044;-77
2024/02/08 00:52:41;;;;;;;6.55;5.65;;;-0.90;99.90;;;;;;4918717;29;20131;-77
2024/02/08 00:55:09;;;;;;;7.20;5.80;;;-0.90;99.90;;;;;;4904936;29;20039;-77
2024/02/08 00:57:38;;;;;;;8.25;6.05;;;-0.60;99.90;;;;;;4913721;29;20044;-77
2024/02/08 01:00:06;;;;;;;9.30;5.55;;;-0.80;99.90;;;;;;4900358;29;20127;-76
2024/02/08 01:02:33;;;;;;;7.47;6.72;;;-0.80;99.90;;;;;;4931814;29;20055;-77
2024/02/08 01:05:01;;;;;;;10.30;4.95;;;-0.70;99.90;;;;;;4913267;29;20066;-77
2024/02/08 01:07:31;;;;;;;7.15;5.05;;;-0.70;99.90;;;;;;4926504;29;20462;-78
2024/02/08 01:09:59;;;;;;;8.23;5.15;;;-0.70;99.90;;;;;;4893767;29;20103;-77
2024/02/08 01:12:27;;;;;;;10.88;5.07;;;-0.70;99.90;;;;;;4922992;29;20503;-77
2024/02/08 01:14:54;;;;;;;10.02;5.00;;;-0.70;99.90;;;;;;4928146;29;20052;-78
2024/02/08 01:17:21;;;;;;;6.05;5.38;;;-0.70;99.90;;;;;;4877971;29;20063;-77
2024/02/08 01:19:50;;;;;;;7.85;6.03;;;-0.70;99.90;;;;;;4924923;29;20532;-77
2024/02/08 01:22:19;;;;;;;8.27;4.82;;;-0.70;99.90;;;;;;4906195;29;20051;-77
2024/02/08 01:24:50;;;;;;;12.70;5.55;;;-0.70;99.90;;;;;;4922616;29;20040;-77
2024/02/08 01:27:20;;;;;;;12.70;5.35;;;-0.20;99.90;;;;;;4938834;28;20047;-77
2024/02/08 01:29:59;;;;;;;11.18;5.28;;;-0.70;99.90;;;;;;4912963;29;20055;-77
2024/02/08 01:32:28;;;;;;;9.20;5.85;;;-0.40;99.90;;;;;;4953268;29;20040;-77
2024/02/08 01:34:55;;;;;;;10.60;6.90;;;-0.70;99.90;;;;;;4915755;29;20052;-77
2024/02/08 01:37:22;;;;;;;6.68;5.47;;;-0.70;99.90;;;;;;4908699;29;20122;-77
2024/02/08 01:39:49;;;;;;;13.07;5.55;;;-0.70;99.90;;;;;;4914179;29;20874;-77
2024/02/08 01:42:16;;;;;;;11.30;5.30;;;-0.40;99.90;;;;;;4944129;29;20525;-76
2024/02/08 01:44:46;;;;;;;6.32;5.38;;;-0.70;99.90;;;;;;4916900;29;20052;-77
2024/02/08 01:47:17;;;;;;;8.38;4.63;;;-0.80;99.90;;;;;;4924184;29;20498;-77
2024/02/08 01:49:47;;;;;;;7.57;4.72;;;-0.80;99.90;;;;;;4891982;29;20088;-77
2024/02/08 01:52:18;;;;;;;5.22;4.55;;;-0.80;99.90;;;;;;4928830;29;20194;-77
2024/02/08 01:54:48;;;;;;;7.57;5.05;;;-0.60;99.90;;;;;;4920919;29;20051;-76
2024/02/08 01:57:15;;;;;;;8.88;5.30;;;-0.80;99.90;;;;;;4924350;29;20327;-76
2024/02/08 01:59:52;;;;;;;4.68;4.22;;;-0.80;99.90;;;;;;4948579;29;20050;-77
2024/02/08 02:02:24;;;;;;;8.18;3.60;;;-0.80;99.90;;;;;;4935636;29;20128;-77
2024/02/08 02:04:51;;;;;;;8.75;6.72;;;-0.50;99.90;;;;;;4934111;29;20067;-77
2024/02/08 02:07:19;;;;;;;9.18;5.65;;;-0.80;99.90;;;;;;4917405;29;20036;-77
2024/02/08 02:09:47;;;;;;;7.30;4.28;;;-0.60;99.90;;;;;;4947258;29;20051;-77
2024/02/08 02:12:25;;;;;;;14.50;5.60;;;-0.70;99.90;;;;;;4919348;29;20080;-77
2024/02/08 02:14:53;;;;;;;7.25;5.20;;;-0.70;99.90;;;;;;4948403;29;20043;-76
2024/02/08 02:17:20;;;;;;;7.60;4.53;;;-0.60;99.90;;;;;;4915448;29;20047;-76
2024/02/08 02:19:47;;;;;;;9.73;5.32;;;-0.70;99.90;;;;;;4955058;29;20054;-76
2024/02/08 02:22:19;;;;;;;7.90;4.32;;;-0.70;99.90;;;;;;4917313;29;20063;-76
2024/02/08 02:24:49;;;;;;;;;;;-0.70;99.90;;;;;;4941506;29;20075;-76
2024/02/08 02:27:17;;;;;;;8.68;4.75;;;-0.70;99.90;;;;;;4949866;29;19962;-75
2024/02/08 02:29:45;;;;;;;9.85;4.32;;;-0.70;99.90;;;;;;4908331;29;20055;-77
2024/02/08 02:32:20;;;;;;;11.70;5.47;;;-0.80;99.90;;;;;;4939101;29;20042;-76
2024/02/08 02:34:53;;;;;;;8.68;4.55;;;-0.80;99.90;;;;;;4931858;29;20075;-75
2024/02/08 02:37:22;;;;;;;14.38;4.28;;;-0.60;99.90;;;;;;4916613;29;20043;-76
2024/02/08 02:39:49;;;;;;;11.85;4.38;;;-0.80;99.90;;;;;;4944360;29;20051;-75
2024/02/08 02:42:16;;;;;;;8.00;5.07;;;-0.80;99.90;;;;;;4924892;29;20051;-76
2024/02/08 02:44:44;;;;;;;6.70;3.67;;;-0.80;99.90;;;;;;4934774;29;20039;-76
2024/02/08 02:47:11;;;;;;;8.50;5.95;;;-0.80;99.90;;;;;;4895213;29;20467;-76
2024/02/08 02:49:38;;;;;;;9.05;4.32;;;-0.80;99.90;;;;;;4932011;29;20079;-74
2024/02/08 02:52:09;;;;;;;7.60;4.03;;;-0.80;99.90;;;;;;4945540;29;20076;-75
2024/02/08 02:54:39;;;;;;;4.30;3.40;;;-0.90;99.90;;;;;;4926862;29;20051;-75
2024/02/08 02:57:07;;;;;;;10.32;4.50;;;-1.00;99.90;;;;;;4939754;29;20123;-76
2024/02/08 02:59:34;;;;;;;12.23;5.13;;;-1.00;99.90;;;;;;4906030;29;20063;-75
2024/02/08 03:02:02;;;;;;;10.80;5.05;;;-1.00;99.90;;;;;;4946912;28;20044;-75
2024/02/08 03:04:30;;;;;;;8.05;4.15;;;-1.00;99.90;;;;;;4897978;29;20082;-76
2024/02/08 03:06:57;;;;;;;8.65;4.32;;;-1.10;99.90;;;;;;4914143;29;20067;-76
2024/02/08 03:09:27;;;;;;;5.82;4.22;;;-1.10;99.90;;;;;;4921914;29;20067;-75
2024/02/08 03:11:57;;;;;;;7.72;4.50;;;-0.80;99.90;;;;;;4934081;29;20056;-75
2024/02/08 03:14:25;;;;;;;14.52;4.60;;;-1.10;99.90;;;;;;4934026;29;20047;-75
2024/02/08 03:16:56;;;;;;;8.77;4.78;;;-1.10;99.90;;;;;;4925616;29;20060;-75
2024/02/08 03:19:23;;;;;;;7.40;5.15;;;-1.10;99.90;;;;;;4921805;29;20108;-75
2024/02/08 03:21:51;;;;;;;6.57;4.15;;;-1.10;99.90;;;;;;4914560;29;20052;-75
2024/02/08 03:24:19;;;;;;;11.10;4.38;;;-1.10;99.90;;;;;;4926673;29;20040;-76
2024/02/08 03:26:49;;;;;;;7.20;3.70;;;-1.00;99.90;;;;;;4929182;29;20068;-76
2024/02/08 03:29:17;;;;;;;7.70;3.97;;;-1.00;99.90;;;;;;4897349;28;20044;-76
2024/02/08 03:31:45;;;;;;;13.55;4.30;;;-0.90;99.90;;;;;;4927037;29;20053;-75
2024/02/08 03:34:19;;;;;;;8.90;4.43;;;-0.80;99.90;;;;;;4908235;29;20047;-75
2024/02/08 03:36:47;;;;;;;7.82;4.45;;;-0.80;99.90;;;;;;4910900;29;20103;-74
2024/02/08 03:39:24;;;;;;;6.13;4.10;;;-0.70;99.90;;;;;;4905215;29;20419;-75
2024/02/08 03:41:57;;;;;;;8.25;4.45;;;-0.70;99.90;;;;;;4890546;29;20043;-75
2024/02/08 03:44:25;;;;;;;7.30;4.70;;;-0.60;99.90;;;;;;4917999;29;20515;-75
2024/02/08 03:46:53;;;;;;;8.88;3.45;;;-0.40;99.90;;;;;;4892199;29;20048;-75
2024/02/08 03:49:20;;;;;;;8.43;4.13;;;-0.60;99.90;;;;;;4931152;29;20052;-75
2024/02/08 03:51:48;;;;;;;16.17;5.28;;;-0.60;99.90;;;;;;4921052;29;20059;-75
2024/02/08 03:54:19;;;;;;;7.93;4.13;;;-0.60;99.90;;;;;;4932386;29;20091;-75
2024/02/08 03:56:50;;;;;;;6.53;3.85;;;-0.50;99.90;;;;;;4922300;29;20039;-75
2024/02/08 03:59:27;;;;;;;5.15;3.33;;;-0.50;99.90;;;;;;4902029;29;20084;-75
2024/02/08 04:02:03;;;;;;;8.38;3.55;;;-0.50;99.90;;;;;;4930646;29;20043;-75
2024/02/08 04:04:59;;;;;;;7.95;4.53;;;-0.50;99.90;;;;;;4923996;29;20058;-76
2024/02/08 04:07:56;;;;;;;6.85;5.78;;;-0.50;99.90;;;;;;4923143;29;20047;-75
2024/02/08 04:54:43;;;;;;;3.08;2.47;;;-0.20;99.90;;;;;;4941735;29;20680;-76
2024/02/08 04:57:10;;;;;;;7.88;4.45;;;-0.30;99.90;;;;;;4909508;29;20055;-76
2024/02/08 04:59:41;;;;;;;7.65;3.30;;;-0.30;99.90;;;;;;4895725;29;20044;-76
2024/02/08 05:02:09;;;;;;;8.18;3.58;;;-0.20;99.90;;;;;;4935176;29;20069;-76
2024/02/08 05:04:36;;;;;;;9.27;4.20;;;-0.20;99.90;;;;;;4916907;29;20119;-75
2024/02/08 05:07:06;;;;;;;10.30;4.10;;;-0.20;99.90;;;;;;4911538;29;20056;-76
2024/02/08 05:09:34;;;;;;;8.77;3.50;;;-0.20;99.90;;;;;;4936355;29;20070;-76
2024/02/08 05:12:05;;;;;;;10.32;3.72;;;-0.20;99.90;;;;;;4929087;29;20058;-75
2024/02/08 05:14:36;;;;;;;10.25;3.20;;;-0.20;99.90;;;;;;4912545;29;20506;-76
2024/02/08 05:17:04;;;;;;;9.77;4.38;;;-0.30;99.90;;;;;;4920617;29;20055;-76
2024/02/08 05:19:31;;;;;;;6.70;3.53;;;-0.20;99.90;;;;;;4937087;28;20043;-76
2024/02/08 05:22:02;;;;;;;7.55;3.75;;;-0.20;99.90;;;;;;4930960;29;20047;-76
2024/02/08 05:24:30;;;;;;;8.70;3.45;;;-0.20;99.90;;;;;;4936938;29;20040;-76
2024/02/08 05:26:59;;;;;;;6.65;3.70;;;-0.20;99.90;;;;;;4908230;29;20102;-76
2024/02/08 05:29:28;;;;;;;8.70;3.78;;;-0.20;99.90;;;;;;4918710;29;20048;-76
2024/02/08 05:31:55;;;;;;;4.00;3.50;;;-0.20;99.90;;;;;;4893804;29;20419;-76
2024/02/08 05:34:25;;;;;;;6.65;3.80;;;-0.20;99.90;;;;;;4929756;29;20047;-76
2024/02/08 05:36:55;;;;;;;10.60;4.15;;;-0.20;99.90;;;;;;4885431;29;20395;-76
2024/02/08 05:39:28;;;;;;;9.77;4.82;;;-0.20;99.90;;;;;;4911076;29;20048;-76
2024/02/08 05:41:55;;;;;;;9.15;4.07;;;-0.20;99.90;;;;;;4936101;28;20046;-76
2024/02/08 05:44:29;;;;;;;12.43;4.38;;;0.00;99.90;;;;;;4949461;29;20502;-76
2024/02/08 05:46:57;;;;;;;4.85;3.33;;;-0.10;99.90;;;;;;4932518;29;20044;-76
2024/02/08 05:49:25;;;;;;;5.35;4.47;;;-0.10;99.90;;;;;;4900235;29;20043;-76
2024/02/08 05:51:54;;;;;;;9.00;4.03;;;-0.10;99.90;;;;;;4937719;29;20068;-76
2024/02/08 05:54:31;;;;;;;6.25;4.97;;;0.00;99.90;;;;;;4912272;29;20048;-76
2024/02/08 05:57:03;;;;;;;6.35;3.63;;;0.10;99.90;;;;;;4888495;29;20047;-76
2024/02/08 05:59:31;;;;;;;;;;;0.10;99.90;;;;;;4929832;29;20076;-77
2024/02/08 06:02:00;;;;;;;4.68;3.63;;;0.20;99.90;;;;;;4934670;29;19955;-76
2024/02/08 06:04:52;;;;;;;7.07;4.13;;;0.30;99.90;;;;;;4939482;28;20044;-77
2024/02/08 06:07:19;;;;;;;5.93;3.30;;;0.30;99.90;;;;;;4915202;29;20043;-77
2024/02/08 06:09:47;;;;;;;6.63;3.30;;;0.40;99.90;;;;;;4899107;29;20055;-77
2024/02/08 06:12:42;;;;;;;8.50;4.38;;;0.40;99.90;;;;;;4922554;29;20406;-77
2024/02/08 06:18:25;;;;;;;5.18;3.65;;;0.50;99.90;;;;;;4866001;29;20116;-77
2024/02/08 06:20:59;;;;;;;6.95;3.92;;;0.60;99.90;;;;;;4902609;29;20527;-77
2024/02/08 06:23:27;;;;;;;6.20;2.90;;;0.60;99.90;;;;;;4923003;29;20055;-77
2024/02/08 06:28:46;;;;;;;5.95;3.30;;;0.70;99.90;;;;;;4920931;29;20058;-77
2024/02/08 06:31:17;;;;;;;8.32;4.20;;;0.70;99.90;;;;;;4918730;29;20047;-77
2024/02/08 06:36:34;;;;;;;8.57;4.25;;;0.80;99.90;;;;;;4905326;29;20074;-77
2024/02/08 06:39:20;;;;;;;4.68;3.78;;;0.80;99.90;;;;;;4911602;29;20055;-77
2024/02/08 06:41:55;;;;;;;;;;;0.90;99.90;;;;;;4902955;29;20051;-77
2024/02/08 07:37:25;;;;;;;9.27;5.30;;;1.20;99.90;;;;;;4911391;29;20450;-77
2024/02/08 07:40:02;;;;;;;8.15;4.65;;;1.20;99.90;;;;;;4918315;29;20116;-77
2024/02/08 07:42:29;;;;;;;7.07;3.60;;;1.30;99.90;;;;;;4887414;29;20503;-77
2024/02/08 07:44:57;;;;;;;9.15;4.60;;;1.30;99.90;;;;;;4908142;29;20048;-77
2024/02/08 07:47:25;;;;;;;9.02;6.38;;;1.30;99.90;;;;;;4929274;29;20050;-77
2024/02/08 07:50:08;;;;;;;9.52;5.88;;;1.30;99.90;;;;;;4903183;29;20056;-77
2024/02/08 07:52:45;;;;;;;8.75;5.68;;;1.40;99.90;;;;;;4927738;29;20043;-78
2024/02/08 07:55:47;;;;;;;8.77;6.03;;;1.40;99.90;;;;;;4928745;29;20055;-78
2024/02/08 07:58:09;;;;;;;7.40;4.95;;;1.50;99.90;;;;;;4915903;29;20046;-78
2024/02/08 08:03:15;;;;;;;9.98;5.78;;;1.50;99.90;;;;;;4913376;29;20325;-78
2024/02/08 08:05:45;;;;;;;8.68;5.22;;;1.50;99.90;;;;;;4912687;29;20048;-78
2024/02/08 08:08:28;;;;;;;9.02;5.28;;;1.60;99.90;;;;;;4918684;29;20048;-78
2024/02/08 08:11:02;;;;;;;10.25;4.95;;;1.70;99.90;;;;;;4925563;29;20059;-78
2024/02/08 08:16:36;;;;;;;7.55;5.75;;;1.70;99.90;;;;;;4835663;29;20078;-78
2024/02/08 08:19:08;;;;;;;9.50;5.72;;;1.70;99.90;;;;;;4856353;29;20485;-78
2024/02/08 08:24:26;;;;;;;15.05;6.13;;;1.80;99.90;;;;;;4933406;29;20062;-78
2024/02/08 08:29:49;;;;;;;6.15;3.72;;;1.90;99.90;;;;;;4910840;29;20588;-78
2024/02/08 08:37:59;;;;;;;8.02;5.53;;;2.20;99.90;;;;;;4933833;29;20411;-79
2024/02/08 08:40:38;;;;;;;8.68;5.40;;;2.20;99.90;;;;;;4923529;29;20628;-79
2024/02/08 08:43:10;;;;;;;9.07;5.20;;;2.30;99.90;;;;;;4907504;29;20036;-78
2024/02/08 08:45:40;;;;;;;11.20;5.97;;;2.40;99.90;;;;;;4910981;29;20059;-79
2024/02/08 08:48:08;;;;;;;8.90;5.43;;;2.50;99.90;;;;;;4894508;29;20083;-78
2024/02/08 08:50:36;;;;;;;12.50;6.15;;;2.50;99.90;;;;;;4910189;29;20047;-79
2024/02/08 08:53:19;;;;;;;11.10;5.47;;;2.60;99.90;;;;;;4922042;29;20059;-78
2024/02/08 08:55:50;;;;;;;11.20;7.32;;;2.70;99.90;;;;;;4913865;29;20094;-78
2024/02/08 08:58:22;;;;;;;3.60;2.75;;;2.80;99.90;;;;;;4913043;29;20094;-78
2024/02/08 09:00:58;;;;;;;10.32;5.57;;;2.90;99.90;;;;;;4938227;29;20059;-78
2024/02/08 09:03:26;;;;;;;6.20;3.47;;;3.00;99.90;;;;;;4874471;29;20234;-78
2024/02/08 09:05:57;;;;;;;4.15;3.78;;;3.10;99.90;;;;;;4902477;29;20052;-78
2024/02/08 09:11:25;;;;;;;8.05;5.03;;;3.30;99.90;;;;;;4883809;29;20076;-78
2024/02/08 09:13:54;;;;;;;10.30;5.45;;;3.50;99.90;;;;;;4918730;29;20475;-77
2024/02/08 09:21:33;;;;;;;8.07;4.75;;;4.00;99.90;;;;;;4936666;29;20086;-78
2024/02/08 09:24:06;;;;;;;11.77;5.70;;;4.20;99.90;;;;;;4933903;29;20047;-78
2024/02/08 09:29:24;;;;;;;9.57;5.50;;;4.40;99.90;;;;;;4892857;29;20451;-78
2024/02/08 09:31:59;;;;;;;5.22;3.47;;;4.60;99.90;;;;;;4946868;29;20043;-79
2024/02/08 09:34:40;;;;;;;6.07;4.20;;;4.60;99.90;;;;;;4910121;29;20044;-79
2024/02/08 09:37:08;;;;;;;7.38;4.57;;;4.70;99.90;;;;;;4920181;29;20083;-78
2024/02/08 09:39:58;;;;;;;;;;;;;;;;;;;;;
2024/02/08 09:42:27;;;;;;;7.65;4.85;;;4.70;99.90;;;;;;4910059;29;20464;-79
2024/02/08 09:45:18;;;;;;;10.75;4.22;;;4.80;99.90;;;;;;4896734;29;20055;-79
2024/02/08 09:47:52;;;;;;;2.88;2.50;;;4.90;99.90;;;;;;4934821;29;20147;-79
2024/02/08 09:50:36;;;;;;;5.85;4.22;;;4.90;99.90;;;;;;4914999;29;20055;-79
2024/02/08 09:53:19;;;;;;;11.18;4.40;;;4.90;99.90;;;;;;4939956;29;20224;-79
2024/02/08 09:55:57;;;;;;;10.27;4.65;;;4.90;99.90;;;;;;4933719;29;20124;-78
2024/02/08 09:58:38;;;;;;;8.02;4.53;;;4.90;99.90;;;;;;4940437;29;20052;-78
2024/02/08 10:01:21;;;;;;;8.52;3.60;;;5.00;99.90;;;;;;4941517;28;20050;-78
2024/02/08 10:03:50;;;;;;;7.55;4.68;;;5.20;99.90;;;;;;4913780;29;20056;-78
2024/02/08 10:06:38;;;;;;;6.25;2.08;;;5.30;99.90;;;;;;4918601;29;20483;-78
2024/02/08 10:11:58;;;;;;;8.93;3.85;;;5.40;99.90;;;;;;4939321;29;20491;-78
2024/02/08 10:14:25;;;;;;;;;;;5.50;99.90;;;;;;4901151;29;20052;-78
2024/02/08 10:16:58;;;;;;;7.47;3.13;;;5.60;99.90;;;;;;4937605;29;19953;-78
2024/02/08 10:19:35;;;;;;;5.05;2.63;;;5.70;99.90;;;;;;4901000;29;20048;-77
2024/02/08 10:22:18;;;;;;;;;;;5.70;99.90;;;;;;4926870;29;20047;-78
2024/02/08 10:27:21;;;;;;;12.63;3.97;;;5.80;99.90;;;;;;4942809;28;20061;-78
2024/02/08 10:29:52;;;;;;;10.05;3.83;;;6.00;99.90;;;;;;4942866;28;20049;-78
2024/02/08 10:32:20;;;;;;;;;;;5.90;99.90;;;;;;4927268;29;20058;-78
2024/02/08 10:34:52;;;;;;;9.05;3.65;;;5.90;99.90;;;;;;4945512;28;19922;-78
2024/02/08 10:40:28;;;;;;;3.85;2.92;;;5.80;99.90;;;;;;4915971;29;20056;-78
2024/02/08 10:42:58;;;;;;;13.32;3.45;;;5.80;99.90;;;;;;4928291;29;20056;-78
2024/02/08 10:45:32;;;;;;;3.72;1.90;;;5.90;99.90;;;;;;4907863;29;20123;-78
2024/02/08 10:48:03;;;;;;;2.60;2.08;;;5.90;99.90;;;;;;4921677;29;20051;-78
2024/02/08 10:50:34;;;;;;;11.75;3.53;;;5.90;99.90;;;;;;4925924;29;20080;-78
2024/02/08 10:53:04;;;;;;;5.70;2.17;;;5.80;99.90;;;;;;4915219;29;20068;-78
2024/02/08 10:55:36;;;;;;;6.95;4.25;;;5.90;99.90;;;;;;4924264;29;20518;-78
2024/02/08 11:03:08;;;;;;;7.50;2.60;;;6.00;99.90;;;;;;4923744;29;20145;-78
2024/02/08 11:08:23;;;;;;;5.35;3.28;;;6.00;99.90;;;;;;4942632;29;20102;-78
2024/02/08 11:10:58;;;;;;;9.20;2.35;;;5.90;99.90;;;;;;4911091;29;20043;-78
2024/02/08 11:13:30;;;;;;;2.00;1.17;;;5.90;99.90;;;;;;4917387;29;20047;-78
2024/02/08 11:16:19;;;;;;;8.27;2.67;;;5.90;99.90;;;;;;4903286;29;20051;-77
2024/02/08 11:18:52;;;;;;;7.30;2.90;;;5.90;99.90;;;;;;4912052;29;20391;-78
2024/02/08 11:21:42;;;;;;;7.20;2.60;;;5.90;99.90;;;;;;4935938;29;20102;-77
2024/02/08 11:24:32;;;;;;;5.63;2.60;;;5.90;99.90;;;;;;4909097;29;20044;-77
2024/02/08 11:27:02;;;;;;;12.63;3.20;;;5.90;99.90;;;;;;4915560;29;20047;-77
2024/02/08 11:29:47;;;;;;;5.95;2.25;;;5.90;99.90;;;;;;4902058;29;20048;-78
2024/02/08 11:32:18;;;;;;;3.25;1.98;;;5.90;99.90;;;;;;4907666;29;20142;-78
2024/02/08 11:34:46;;;;;;;;;;;5.90;99.90;;;;;;4904453;29;20109;-77
2024/02/08 11:37:18;;;;;;;6.55;2.17;;;5.80;99.90;;;;;;4924440;29;19923;-78
2024/02/08 11:39:49;;;;;;;4.60;2.35;;;5.80;99.90;;;;;;4924052;29;20130;-77
2024/02/08 11:42:17;;;;;;;4.45;2.33;;;5.70;99.90;;;;;;4918291;29;20063;-78
2024/02/08 11:44:46;;;;;;;7.15;3.47;;;5.80;99.90;;;;;;4897379;29;20051;-78
2024/02/08 11:47:23;;;;;;;3.42;2.88;;;5.80;99.90;;;;;;4888488;29;20127;-77
2024/02/08 11:50:08;;;;;;;8.15;2.70;;;5.80;99.90;;;;;;4918569;29;20067;-77
2024/02/08 11:52:38;;;;;;;7.80;2.80;;;5.80;99.90;;;;;;4919398;29;20051;-77
2024/02/08 11:55:13;;;;;;;10.70;2.65;;;5.80;99.90;;;;;;4903388;29;20047;-77
2024/02/08 11:57:43;;;;;;;5.03;1.42;;;5.90;99.90;;;;;;4925625;29;20075;-77
2024/02/08 12:00:17;;;;;;;6.00;2.05;;;5.90;99.90;;;;;;4921363;29;20051;-77
2024/02/08 12:02:58;;;;;;;10.57;3.88;;;5.80;99.90;;;;;;4894767;29;20044;-77
2024/02/08 12:05:28;;;;;;;8.52;2.35;;;5.80;99.90;;;;;;4902843;29;20052;-77
2024/02/08 12:08:11;;;;;;;3.42;2.72;;;5.80;99.90;;;;;;4927193;29;20470;-77
2024/02/08 12:10:41;;;;;;;9.48;1.98;;;5.80;99.90;;;;;;4932748;29;20054;-78
2024/02/08 12:13:12;;;;;;;8.00;2.33;;;5.80;99.90;;;;;;4934739;29;20047;-77
2024/02/08 12:15:44;;;;;;;10.70;2.15;;;5.70;99.90;;;;;;4919149;29;20036;-77
2024/02/08 12:18:12;;;;;;;4.28;2.30;;;5.70;99.90;;;;;;4917189;29;20530;-77
2024/02/08 12:20:43;;;;;;;9.70;3.60;;;5.70;99.90;;;;;;4912279;29;20470;-77
2024/02/08 12:23:14;;;;;;;;;;;6.10;99.90;;;;;;4916467;29;20051;-77
2024/02/08 12:25:42;;;;;;;4.82;3.20;;;5.80;99.90;;;;;;4918822;29;19933;-77
2024/02/08 12:28:11;;;;;;;3.30;2.45;;;6.00;99.90;;;;;;4915069;29;20043;-77
2024/02/08 12:30:40;;;;;;;4.90;2.58;;;5.70;99.90;;;;;;4923995;29;20138;-77
2024/02/08 12:33:10;;;;;;;10.85;3.00;;;5.70;99.90;;;;;;4935567;28;20043;-77
2024/02/08 12:35:43;;;;;;;10.05;2.30;;;5.70;99.90;;;;;;4916776;29;20495;-77
2024/02/08 12:38:13;;;;;;;3.85;2.33;;;5.70;99.90;;;;;;4908461;29;20066;-77
2024/02/08 12:40:44;;;;;;;3.38;2.17;;;5.60;99.90;;;;;;4915980;29;20471;-78
2024/02/08 12:43:13;;;;;;;7.53;2.60;;;5.60;99.90;;;;;;4920078;29;20113;-77
2024/02/08 12:45:41;;;;;;;3.95;2.20;;;5.60;99.90;;;;;;4900644;29;20044;-77
2024/02/08 12:48:10;;;;;;;9.55;3.00;;;5.60;99.90;;;;;;4897895;29;20122;-77
2024/02/08 12:50:38;;;;;;;5.43;1.92;;;5.50;99.90;;;;;;4904269;29;20106;-77
2024/02/08 12:53:13;;;;;;;11.25;2.40;;;5.50;99.90;;;;;;4928127;29;20333;-77
2024/02/08 12:55:41;;;;;;;11.50;3.15;;;5.50;99.90;;;;;;4922482;29;20044;-77
2024/02/08 12:58:13;;;;;;;9.27;2.60;;;5.50;99.90;;;;;;4916028;29;20142;-77
2024/02/08 13:00:44;;;;;;;3.30;1.80;;;5.40;99.90;;;;;;4930767;28;20077;-78
2024/02/08 13:03:15;;;;;;;6.65;2.15;;;5.40;99.90;;;;;;4903883;29;20048;-77
2024/02/08 13:05:44;;;;;;;5.85;1.90;;;5.50;99.90;;;;;;4902301;29;20040;-77
2024/02/08 13:08:19;;;;;;;3.55;2.33;;;5.50;99.90;;;;;;4899970;29;20041;-77
2024/02/08 13:10:54;;;;;;;6.93;2.05;;;5.50;99.90;;;;;;4916915;29;20070;-77
2024/02/08 13:13:25;;;;;;;6.85;2.67;;;5.50;99.90;;;;;;4920917;29;20051;-77
2024/02/08 13:15:58;;;;;;;6.75;2.85;;;5.50;99.90;;;;;;4894197;29;20052;-77
2024/02/08 13:18:30;;;;;;;8.27;2.03;;;5.50;99.90;;;;;;4902906;29;20063;-77
2024/02/08 13:20:58;;;;;;;3.95;2.03;;;5.50;99.90;;;;;;4927284;29;20062;-77
2024/02/08 13:23:29;;;;;;;8.77;3.25;;;5.50;99.90;;;;;;4941590;29;20047;-77
2024/02/08 13:25:57;;;;;;;8.45;3.03;;;5.40;99.90;;;;;;4922986;29;20052;-77
2024/02/08 13:28:25;;;;;;;5.53;1.67;;;5.40;99.90;;;;;;4903945;29;20043;-78
2024/02/08 13:30:56;;;;;;;12.65;2.28;;;5.50;99.90;;;;;;4926548;29;20463;-78
2024/02/08 13:33:28;;;;;;;5.32;1.90;;;5.50;99.90;;;;;;4945169;28;20115;-78
2024/02/08 13:35:55;;;;;;;2.38;2.15;;;5.50;99.90;;;;;;4918664;29;20063;-78
2024/02/08 13:38:22;;;;;;;5.10;2.60;;;5.80;99.90;;;;;;4910149;29;20062;-77
2024/02/08 13:40:58;;;;;;;4.03;1.60;;;5.40;99.90;;;;;;4896994;29;20054;-78
2024/02/08 13:43:30;;;;;;;6.93;2.00;;;5.40;99.90;;;;;;4909902;29;20059;-78
2024/02/08 13:45:57;;;;;;;8.43;2.42;;;5.40;99.90;;;;;;4887367;29;20130;-78
2024/02/08 13:48:29;;;;;;;3.13;2.30;;;5.40;99.90;;;;;;4889205;29;20051;-78
2024/02/08 13:50:58;;;;;;;2.67;1.60;;;5.30;99.90;;;;;;4894074;29;20139;-78
2024/02/08 13:53:28;;;;;;;4.43;1.40;;;5.20;99.90;;;;;;4915860;29;20047;-78
2024/02/08 13:55:55;;;;;;;1.90;1.80;;;5.10;99.90;;;;;;4937979;29;20039;-79
2024/02/08 13:58:25;;;;;;;3.25;1.70;;;5.00;99.90;;;;;;4925931;29;20138;-78
2024/02/08 14:00:54;;;;;;;0.73;0.73;;;4.80;99.90;;;;;;4881069;29;20051;-79
2024/02/08 14:03:22;;;;;;;1.15;1.15;;;4.60;99.90;;;;;;4936171;28;20028;-79
2024/02/08 14:05:51;;;;;;;0.75;0.70;;;4.40;99.90;;;;;;4920398;29;20467;-79
2024/02/08 14:08:19;;;;;;;2.97;1.05;;;4.20;99.90;;;;;;4933512;29;20075;-78
2024/02/08 14:10:47;;;;;;;1.38;0.85;;;4.00;99.90;;;;;;4904247;29;20131;-79
2024/02/08 14:13:16;;;;;;;2.80;1.98;;;4.00;99.90;;;;;;4921829;29;20048;-78
2024/02/08 14:15:45;;;;;;;;;;;3.80;99.90;;;;;;4919394;29;20423;-79
2024/02/08 14:18:30;;;;;;;3.90;1.83;;;3.80;99.90;;;;;;4919577;29;19926;-78
2024/02/08 14:21:00;;;;;;;3.85;2.65;;;3.70;99.90;;;;;;4919660;29;20062;-76
2024/02/08 14:23:30;;;;;;;1.38;0.85;;;3.60;99.90;;;;;;4887352;29;20048;-78
2024/02/08 14:28:42;;;;;;;4.88;1.83;;;3.50;99.90;;;;;;4936685;29;20495;-79
2024/02/08 14:31:10;;;;;;;2.30;1.05;;;3.50;99.90;;;;;;4904438;29;20048;-79
2024/02/08 14:33:45;;;;;;;1.63;1.48;;;3.40;99.90;;;;;;4901525;29;20495;-79
2024/02/08 14:36:14;;;;;;;3.78;0.85;;;3.40;99.90;;;;;;4921626;29;20050;-78
2024/02/08 14:38:45;;;;;;;1.25;1.15;;;3.30;99.90;;;;;;4920339;29;20054;-78
2024/02/08 14:41:25;;;;;;;1.95;1.15;;;3.20;99.90;;;;;;4921618;29;20499;-78
2024/02/08 14:43:54;;;;;;;3.53;1.17;;;3.20;99.90;;;;;;4919395;29;20134;-78
2024/02/08 14:46:25;;;;;;;3.47;1.67;;;2.90;99.90;;;;;;4892748;29;20086;-79
2024/02/08 14:48:53;;;;;;;2.95;1.65;;;2.80;99.90;;;;;;4897795;29;20539;-78
2024/02/08 14:53:58;;;;;;;5.72;2.40;;;2.50;99.90;;;;;;4904365;29;20047;-78
2024/02/08 14:56:25;;;;;;;3.90;1.92;;;2.40;99.90;;;;;;4931827;29;20040;-78
2024/02/08 15:01:38;;;;;;;1.48;0.60;;;2.20;99.90;;;;;;4904856;29;20040;-77
2024/02/08 15:04:16;;;;;;;3.33;1.63;;;2.20;99.90;;;;;;4914551;29;20047;-77
2024/02/08 15:14:49;;;;;;;3.38;2.33;;;2.00;99.90;;;;;;4934069;29;20515;-76
2024/02/08 15:17:23;;;;;;;6.78;1.83;;;2.00;99.90;;;;;;4915130;29;20055;-77
2024/02/08 15:19:53;;;;;;;2.55;2.28;;;2.00;99.90;;;;;;4902402;29;20059;-76
2024/02/08 15:25:06;;;;;;;2.90;1.95;;;2.00;99.90;;;;;;4935293;29;20036;-76
2024/02/08 15:27:47;;;;;;;5.55;1.80;;;2.00;99.90;;;;;;4921675;29;20584;-76
2024/02/08 15:30:17;;;;;;;2.58;1.73;;;2.00;99.90;;;;;;4917987;29;20122;-77
2024/02/08 15:35:39;;;;;;;3.03;2.42;;;2.00;99.90;;;;;;4891345;29;20543;-77
2024/02/08 15:40:55;;;;;;;4.10;2.25;;;2.20;99.90;;;;;;4932162;29;20056;-77
2024/02/08 15:43:25;;;;;;;5.00;2.28;;;1.90;99.90;;;;;;4904969;29;20036;-77
2024/02/08 15:45:54;;;;;;;4.97;1.98;;;1.90;99.90;;;;;;4909291;29;20503;-77
2024/02/08 15:48:33;;;;;;;1.65;1.55;;;1.90;99.90;;;;;;4916351;29;20042;-77
2024/02/08 15:51:08;;;;;;;1.80;1.48;;;1.90;99.90;;;;;;4904790;29;20525;-77
2024/02/08 15:53:49;;;;;;;1.42;1.27;;;1.90;99.90;;;;;;4914609;29;20135;-77
2024/02/08 15:56:19;;;;;;;2.90;2.60;;;2.00;99.90;;;;;;4935444;28;20051;-77
2024/02/08 15:58:47;;;;;;;1.55;1.10;;;1.90;99.90;;;;;;4914484;29;20463;-77
2024/02/08 16:01:20;;;;;;;9.18;3.90;;;1.90;99.90;;;;;;4901235;29;20054;-77
2024/02/08 16:03:56;;;;;;;1.98;1.77;;;1.90;99.90;;;;;;4905718;29;20454;-77
2024/02/08 16:09:32;;;;;;;3.13;2.92;;;1.90;99.90;;;;;;4900838;29;20471;-76
2024/02/08 16:12:13;;;;;;;3.42;2.33;;;1.90;99.90;;;;;;4932147;29;20411;-76
2024/02/08 16:14:46;;;;;;;4.68;2.28;;;1.90;99.90;;;;;;4917510;29;20399;-76